Alpine, AR (71920)

9:23 AM CDT on April 18, 2015 (GMT -0500)
Mount Moriah Road | | Change Station
CLOSE
Current Station
Personal Weather Station
Location: Bonnerdale, AR
Elevation: 659 ft
Nearby Weather Stations

Elev 659 ft 34.38 °N, 93.35 °W | Updated 16 seconds ago

Overcast
Overcast
68.0 °F
Feels Like 68.0 °F
N
1.6
Wind Variable Wind from East
Gusts 3.8 mph

Today
High -- | Low -- °F
--% Chance of Precip.
Yesterday
High -- | Low -- °F
Precip. -- in
6:38 AM 7:47 PM
Waning Crescent, 0% visible
Pressure 29.94 in
Visibility 10.0 miles
Clouds Mostly Cloudy 1400 ft
Dew Point 64 °F
Humidity 87%
Rainfall 0.00 in
Snow Depth Not available.
UV 2 out of 12
Pollen 3.40 out of 12
Air Quality Not available.
Flu Activity Sporadic
SPECI KADF 181414Z AUTO 00000KT 10SM BKN014 20/19 A2994 RMK AO2

More Conditions Fewer Conditions

Pressure 29.94 in
Visibility 10.0 miles
Clouds Mostly Cloudy 1400 ft
Dew Point 64 °F
Humidity 87%
Rainfall 0.00 in
Snow Depth Not available.
UV 2 out of 12
Pollen 3.40 out of 12
Air Quality Not available.
Flu Activity Sporadic
SPECI KADF 181414Z AUTO 00000KT 10SM BKN014 20/19 A2994 RMK AO2

More Conditions Fewer Conditions

10-Day Weather Forecast

Almanac

Astronomy

Apr. 18, 2015 Rise Set
Actual Time
Civil Twilight
Nautical Twilight
Astronomical Twilight
Moon
Length of Visible Light
Length of Day
Tomorrow will be .
, % of the Moon is Illuminated

Today's Extremes

State Highs State Lows

Community

WunderPhotos

Upload Photos

1,814,414 photos uploaded!

WunderBlogs® & News

Nearby

Air Quality

  Air Quality AQ Index Pollutant
Not available.

Snow Depth

Station Depth Elevation

Earthquake Activity

City Distance Mag. Time & Date
Minimum magnitude displayed is 2.5.

Coastal Water Temperatures

Place Temperature

Stations

Nearby Weather Stations

Station Location Temp. Windchill Dew Point Humidity Wind Precip. Elev Updated Type